Billy Budd — VSPI7 — position and weather

sailwx.info

Track history (hours):
 
Tides and Currents Weather Stations Pressure Air Temp Water Temp Dewpoint Dewpoint Depression Visibility Wind Speed Wind Dir Waves Ship Positions

Billy Budd

Last reported at 2017-Aug-16 15:06 UTC. Time now 2017-Aug-16 21:50 UTC.
Position N 38°40' E 001°29'.

Length 35 m.

Type: Sailing vessel. MMSI: 235003490.

Date/timePositionNaut miles runAvg speedWind from/ knotsBaromVisibWave heightAir tempDewpointWater temp
2017-Aug-16 15:06N 38°40' E 001°29'0 0.0
2017-Aug-16 14:36N 38°40' E 001°29'0 0.0
2017-Aug-16 14:24N 38°40' E 001°29'0 0.0
2017-Aug-16 13:54N 38°40' E 001°29'0 0.0
2017-Aug-16 13:30N 38°40' E 001°29'2 0.6
2017-Aug-16 10:33N 38°41' E 001°28'0 3.1
2017-Aug-16 10:28N 38°41' E 001°27'4 3.7
2017-Aug-16 09:26N 38°42' E 001°23'3 7.2
2017-Aug-16 09:00N 38°45' E 001°25'3 5.8
2017-Aug-16 08:30N 38°48' E 001°24'2 4.5
2017-Aug-16 08:00N 38°50' E 001°24'0 0.0
2017-Aug-15 17:06N 38°50' E 001°24'0 0.0
2017-Aug-15 17:00N 38°50' E 001°24'0 0.0
2017-Aug-15 16:27N 38°50' E 001°24'0 0.0
2017-Aug-15 16:00N 38°50' E 001°24'0 0.0
2017-Aug-15 15:30N 38°50' E 001°24'0 0.0
2017-Aug-15 15:00N 38°50' E 001°24'0 0.0
2017-Aug-15 14:24N 38°50' E 001°24'0 0.0
2017-Aug-15 14:00N 38°50' E 001°24'3 2.4
2017-Aug-15 12:48N 38°50' E 001°20'  
Track history (hours):
 
Tides and Currents Weather Stations Pressure Air Temp Water Temp Dewpoint Dewpoint Depression Visibility Wind Speed Wind Dir Waves Ship Positions

Billy Budd

Last reported at 2017-Aug-16 15:06 UTC. Time now 2017-Aug-16 21:50 UTC.
Position N 38°40' E 001°29'.

Length 35 m.

Type: Sailing vessel. MMSI: 235003490.

Date/timePositionNaut miles runAvg speedWind from/ knotsBaromVisibWave heightAir tempDewpointWater temp
2017-Aug-16 15:06N 38°40' E 001°29'0 0.0
2017-Aug-16 14:36N 38°40' E 001°29'0 0.0
2017-Aug-16 14:24N 38°40' E 001°29'0 0.0
2017-Aug-16 13:54N 38°40' E 001°29'0 0.0
2017-Aug-16 13:30N 38°40' E 001°29'2 0.6
2017-Aug-16 10:33N 38°41' E 001°28'0 3.1
2017-Aug-16 10:28N 38°41' E 001°27'4 3.7
2017-Aug-16 09:26N 38°42' E 001°23'3 7.2
2017-Aug-16 09:00N 38°45' E 001°25'3 5.8
2017-Aug-16 08:30N 38°48' E 001°24'2 4.5
2017-Aug-16 08:00N 38°50' E 001°24'0 0.0
2017-Aug-15 17:06N 38°50' E 001°24'0 0.0
2017-Aug-15 17:00N 38°50' E 001°24'0 0.0
2017-Aug-15 16:27N 38°50' E 001°24'0 0.0
2017-Aug-15 16:00N 38°50' E 001°24'0 0.0
2017-Aug-15 15:30N 38°50' E 001°24'0 0.0
2017-Aug-15 15:00N 38°50' E 001°24'0 0.0
2017-Aug-15 14:24N 38°50' E 001°24'0 0.0
2017-Aug-15 14:00N 38°50' E 001°24'3 2.4
2017-Aug-15 12:48N 38°50' E 001°20'  

Dump ship's entire track history